Time;durP1;ratioP1;P1;durP2;ratioP2;P2;SDS_P1;SDS_P2;PMS_P1;PMS_P2;Temp;Humidity;BMP_temperature;BMP_pressure;BME280_temperature;BME280_humidity;BME280_pressure;Samples;Min_cycle;Max_cycle;Signal;HPM_P1;HPM_P2
2021/03/21 00:00:41;;;;;;;30.05;10.75;;;;;;;-1.81;92.16;100933.03;1785024;79;20923;-42
2021/03/21 00:03:09;;;;;;;26.20;9.85;;;;;;;-1.80;92.20;100936.03;1784961;80;21210;-42
2021/03/21 00:05:37;;;;;;;37.80;10.72;;;;;;;-1.81;92.25;100924.14;1784871;79;21025;-42
2021/03/21 00:08:17;;;;;;;51.15;9.63;;;;;;;-1.83;92.19;100920.68;1784913;80;20994;-42
2021/03/21 00:11:04;;;;;;;20.43;10.95;;;;;;;-1.80;92.35;100918.27;1842071;77;22698;-41
2021/03/21 00:13:32;;;;;;;20.45;10.38;;;;;;;-1.85;92.27;100921.41;1817326;79;21607;-42
2021/03/21 00:16:00;;;;;;;19.07;10.75;;;;;;;-1.85;92.47;100919.76;1817284;79;21198;-42
2021/03/21 00:18:31;;;;;;;17.00;10.70;;;;;;;-1.83;92.46;100913.06;1817216;78;21528;-41
2021/03/21 00:20:59;;;;;;;20.23;11.08;;;;;;;-1.83;92.47;100911.80;1817349;79;20999;-41
2021/03/21 00:23:27;;;;;;;15.15;10.15;;;;;;;-1.83;92.56;100907.11;1817267;78;21570;-40
2021/03/21 00:25:54;;;;;;;17.15;11.03;;;;;;;-1.84;92.54;100905.38;1817264;79;20978;-41
2021/03/21 00:28:27;;;;;;;20.27;10.70;;;;;;;-1.84;92.57;100906.27;1795525;78;21197;-41
2021/03/21 00:30:55;;;;;;;19.37;11.15;;;;;;;-1.82;92.65;100903.38;1785006;80;21661;-42
2021/03/21 00:33:27;;;;;;;19.62;11.12;;;;;;;-1.83;92.68;100904.19;1785063;79;20950;-42
2021/03/21 00:35:55;;;;;;;20.17;11.97;;;;;;;-1.84;92.65;100905.38;1784961;80;20962;-41
2021/03/21 00:38:33;;;;;;;22.13;12.07;;;;;;;-1.82;92.75;100901.23;1785050;80;21047;-42
2021/03/21 00:41:01;;;;;;;24.15;13.55;;;;;;;-1.82;92.78;100907.19;1785149;80;21630;-41
2021/03/21 00:43:31;;;;;;;21.50;12.13;;;;;;;-1.79;92.85;100905.15;1785107;79;21489;-41
2021/03/21 00:45:58;;;;;;;24.95;13.80;;;;;;;-1.79;92.84;100903.49;1785013;80;21077;-42
2021/03/21 00:48:31;;;;;;;25.62;14.80;;;;;;;-1.78;92.85;100902.69;1784960;80;21021;-43
2021/03/21 00:50:58;;;;;;;25.72;14.78;;;;;;;-1.77;92.88;100896.80;1785007;80;21556;-43
2021/03/21 00:53:26;;;;;;;26.68;13.32;;;;;;;-1.76;92.84;100902.34;1784948;80;21437;-42
2021/03/21 00:55:54;;;;;;;29.25;14.58;;;;;;;-1.76;92.81;100900.22;1784959;80;20963;-42
2021/03/21 00:58:22;;;;;;;23.50;13.90;;;;;;;-1.78;92.83;100900.15;1784988;80;21014;-42
2021/03/21 01:00:53;;;;;;;36.75;13.78;;;;;;;-1.77;92.76;100898.45;1784961;79;20982;-42
2021/03/21 01:03:21;;;;;;;31.37;14.78;;;;;;;-1.79;92.79;100907.30;1785004;80;21018;-42
2021/03/21 01:05:54;;;;;;;35.10;15.78;;;;;;;-1.79;92.81;100906.03;1785027;80;21198;-43
2021/03/21 01:08:33;;;;;;;33.30;15.55;;;;;;;-1.78;92.82;100907.77;1784968;80;20994;-43
2021/03/21 01:11:05;;;;;;;62.43;15.83;;;;;;;-1.75;92.85;100909.56;1783276;80;21442;-42
2021/03/21 01:13:33;;;;;;;73.97;17.62;;;;;;;-1.70;92.79;100912.27;1783015;80;20947;-42
2021/03/21 01:16:04;;;;;;;35.98;16.65;;;;;;;-1.70;92.80;100904.27;1783152;80;20899;-42
2021/03/21 01:18:34;;;;;;;52.43;16.77;;;;;;;-1.67;92.71;100904.38;1782574;80;21878;-42
2021/03/21 01:21:03;;;;;;;63.80;17.73;;;;;;;-1.63;92.81;100901.14;1782701;80;20959;-43
2021/03/21 01:23:30;;;;;;;54.38;15.90;;;;;;;-1.60;92.74;100901.67;1782486;79;21058;-43
2021/03/21 01:25:58;;;;;;;68.50;17.40;;;;;;;-1.59;92.68;100902.98;1782450;80;20982;-43
2021/03/21 01:28:30;;;;;;;46.25;17.23;;;;;;;-1.59;92.67;100899.60;1782519;79;20990;-42
2021/03/21 01:31:01;;;;;;;46.35;17.95;;;;;;;-1.57;92.66;100896.72;1782569;80;22101;-43
2021/03/21 01:36:16;;;;;;;47.40;18.85;;;;;;;-1.51;92.45;100893.55;1776980;79;22729;-42
2021/03/21 01:38:43;;;;;;;31.25;17.70;;;;;;;-1.57;92.41;100891.63;1749574;82;21627;-41
2021/03/21 01:41:18;;;;;;;31.57;17.10;;;;;;;-1.57;92.21;100895.83;1749481;82;21206;-42
2021/03/21 01:43:46;;;;;;;65.80;18.40;;;;;;;-1.61;92.16;100884.71;1749622;82;21600;-42
2021/03/21 01:46:20;;;;;;;74.00;18.50;;;;;;;-1.67;92.07;100886.60;1749459;82;20986;-43
2021/03/21 01:48:54;;;;;;;67.80;19.15;;;;;;;-1.69;92.18;100887.34;1749420;82;20951;-41
2021/03/21 01:51:28;;;;;;;29.60;15.90;;;;;;;-1.71;92.27;100887.69;1749462;82;20998;-41
2021/03/21 01:53:59;;;;;;;30.50;13.48;;;;;;;-1.74;92.20;100884.64;1749134;82;22139;-42
2021/03/21 01:56:27;;;;;;;35.75;14.43;;;;;;;-1.78;92.21;100882.38;1749444;82;21453;-42
2021/03/21 01:59:12;;;;;;;23.35;13.58;;;;;;;-1.79;92.42;100882.30;1749499;82;21006;-42
2021/03/21 02:01:40;;;;;;;33.33;13.38;;;;;;;-1.82;92.39;100880.53;1720302;82;21501;-42
2021/03/21 02:04:08;;;;;;;25.95;13.28;;;;;;;-1.85;92.36;100879.14;1749452;82;20947;-41
2021/03/21 02:06:41;;;;;;;21.25;12.30;;;;;;;-1.87;92.35;100878.22;1749419;82;21900;-42
2021/03/21 02:09:27;;;;;;;25.12;13.15;;;;;;;-1.91;92.33;100876.34;1749370;81;20956;-42
2021/03/21 02:12:13;;;;;;;48.55;14.80;;;;;;;-1.95;92.43;100879.57;1749580;81;20991;-43
2021/03/21 02:15:11;;;;;;;47.17;13.83;;;;;;;-1.98;92.42;100875.65;1749341;81;20928;-42
2021/03/21 02:17:59;;;;;;;47.43;14.33;;;;;;;-2.05;92.32;100878.34;1749565;82;20940;-41
2021/03/21 02:20:55;;;;;;;33.83;13.25;;;;;;;-2.12;92.44;100873.45;1728469;82;21355;-41
2021/03/21 02:23:51;;;;;;;53.55;13.62;;;;;;;-2.17;92.45;100875.78;1749474;82;21003;-42
2021/03/21 02:26:44;;;;;;;36.10;13.15;;;;;;;-2.17;92.60;100874.52;1749442;82;21006;-42
2021/03/21 02:29:22;;;;;;;20.00;11.88;;;;;;;-2.18;92.59;100878.25;1719683;82;20963;-42
2021/03/21 02:32:17;;;;;;;47.17;14.78;;;;;;;-2.22;92.62;100880.20;1719640;83;21031;-42
2021/03/21 02:35:19;;;;;;;21.37;13.13;;;;;;;-2.25;92.58;100876.27;1719787;83;22392;-42
2021/03/21 02:38:12;;;;;;;47.45;12.80;;;;;;;-2.27;92.67;100880.42;1695995;83;21058;-42
2021/03/21 02:40:46;;;;;;;39.40;13.88;;;;;;;-2.24;92.90;100883.08;1719705;83;20955;-42
2021/03/21 02:43:19;;;;;;;32.80;13.40;;;;;;;-2.22;93.01;100882.73;1720405;83;21049;-42
2021/03/21 02:45:49;;;;;;;27.00;14.13;;;;;;;-2.20;93.06;100887.47;1720207;83;21011;-42
2021/03/21 02:48:28;;;;;;;23.20;13.10;;;;;;;-2.13;93.31;100878.05;1719856;83;22281;-42
2021/03/21 02:51:10;;;;;;;27.17;14.90;;;;;;;-2.05;93.45;100880.48;1719746;83;21046;-42
2021/03/21 02:53:48;;;;;;;23.22;11.63;;;;;;;-1.96;93.39;100879.99;1719784;83;21093;-42
2021/03/21 02:56:24;;;;;;;22.07;12.82;;;;;;;-1.91;93.32;100883.95;1719389;83;21058;-42
2021/03/21 02:59:05;;;;;;;32.15;14.33;;;;;;;-1.86;93.25;100884.15;1718457;83;20975;-43
2021/03/21 03:01:41;;;;;;;26.07;14.63;;;;;;;-1.83;93.22;100881.73;1718771;83;21374;-43
2021/03/21 03:04:14;;;;;;;21.57;13.25;;;;;;;-1.79;93.16;100881.91;1719744;83;20955;-43
2021/03/21 03:06:50;;;;;;;20.70;12.75;;;;;;;-1.72;93.11;100878.34;1719794;83;20943;-41
2021/03/21 03:09:25;;;;;;;29.15;15.28;;;;;;;-1.70;93.01;100875.06;1719811;83;21519;-42
2021/03/21 03:12:02;;;;;;;;;;;;;;;-1.68;93.02;100876.38;1722406;83;21619;-42
2021/03/21 03:14:35;;;;;;;24.70;16.62;;;;;;;-1.62;93.05;100872.41;1719889;83;21390;-42
2021/03/21 03:17:21;;;;;;;25.85;15.08;;;;;;;-1.57;92.98;100872.59;1719767;83;20974;-42
2021/03/21 03:20:06;;;;;;;27.20;15.38;;;;;;;-1.52;92.88;100880.36;1719930;83;21365;-42
2021/03/21 03:22:55;;;;;;;21.87;13.32;;;;;;;-1.49;92.75;100881.35;1719752;83;21085;-42
2021/03/21 03:25:45;;;;;;;96.85;16.17;;;;;;;-1.46;92.69;100880.19;1719743;83;21066;-42
2021/03/21 03:28:38;;;;;;;100.40;16.17;;;;;;;-1.46;92.57;100875.11;1719786;82;22400;-42
2021/03/21 03:31:23;;;;;;;199.87;21.93;;;;;;;-1.42;92.56;100872.69;1719736;83;21636;-42
2021/03/21 03:33:51;;;;;;;165.73;19.33;;;;;;;-1.39;92.49;100872.80;1720022;83;20967;-43
2021/03/21 03:36:20;;;;;;;102.72;15.35;;;;;;;-1.41;92.41;100879.50;1708982;83;21039;-42
2021/03/21 03:38:49;;;;;;;78.70;14.53;;;;;;;-1.44;92.34;100879.00;1706292;84;20908;-42
2021/03/21 03:41:44;;;;;;;24.85;12.88;;;;;;;-1.46;92.24;100876.38;1706339;84;21520;-42
2021/03/21 03:44:38;;;;;;;79.37;14.90;;;;;;;-1.51;92.15;100871.55;1706281;83;21042;-42
2021/03/21 03:47:21;;;;;;;45.52;14.23;;;;;;;-1.56;92.13;100870.51;1706243;83;21003;-42
2021/03/21 03:50:10;;;;;;;39.42;13.10;;;;;;;-1.62;92.12;100869.02;1706295;84;21031;-42
2021/03/21 03:52:55;;;;;;;54.03;13.85;;;;;;;-1.64;92.13;100866.41;1686926;84;21477;-42
2021/03/21 03:55:31;;;;;;;206.85;20.10;;;;;;;-1.65;92.00;100866.33;1706380;84;21356;-42
2021/03/21 03:58:07;;;;;;;100.65;14.07;;;;;;;-1.69;91.89;100867.03;1706361;84;21556;-43
2021/03/21 04:00:55;;;;;;;77.03;13.53;;;;;;;-1.74;91.88;100865.60;1706209;84;21079;-43
2021/03/21 04:03:44;;;;;;;333.10;23.40;;;;;;;-1.78;91.83;100873.49;1706234;82;21058;-42
2021/03/21 04:06:21;;;;;;;64.90;12.70;;;;;;;-1.84;91.61;100868.19;1706247;82;21658;-42
2021/03/21 04:09:02;;;;;;;120.33;17.37;;;;;;;-1.92;91.63;100868.27;1706325;84;21216;-42
2021/03/21 04:11:34;;;;;;;43.95;13.75;;;;;;;-1.97;91.74;100869.77;1706190;84;21007;-43
2021/03/21 04:14:19;;;;;;;137.32;17.60;;;;;;;-2.03;91.69;100871.65;1705166;84;20960;-43
2021/03/21 04:16:52;;;;;;;131.43;19.00;;;;;;;-2.07;91.75;100873.22;1706181;84;21082;-44
2021/03/21 04:19:24;;;;;;;213.37;19.75;;;;;;;-2.09;91.87;100872.30;1706216;83;20932;-42
2021/03/21 04:22:01;;;;;;;230.47;19.00;;;;;;;-2.06;92.00;100877.48;1706200;83;21099;-42
2021/03/21 04:24:43;;;;;;;95.45;16.02;;;;;;;-2.06;91.98;100874.95;1706181;84;21252;-42
2021/03/21 04:27:23;;;;;;;228.92;20.27;;;;;;;-2.08;91.91;100868.95;1686419;82;21168;-41
2021/03/21 04:30:16;;;;;;;106.17;15.20;;;;;;;-2.08;91.99;100875.30;1683699;84;20943;-43
2021/03/21 04:32:47;;;;;;;62.73;13.13;;;;;;;-2.04;92.07;100874.61;1696713;84;21030;-43
2021/03/21 04:35:39;;;;;;;49.08;12.63;;;;;;;-1.93;92.12;100875.42;1708967;83;22271;-43
2021/03/21 04:38:32;;;;;;;87.27;13.48;;;;;;;-1.80;92.19;100880.19;1719628;83;20935;-43
2021/03/21 04:40:59;;;;;;;67.32;12.58;;;;;;;-1.67;92.09;100878.98;1719725;83;20943;-42
2021/03/21 04:43:35;;;;;;;161.30;14.13;;;;;;;-1.57;91.92;100881.48;1693365;83;21560;-42
2021/03/21 04:46:11;;;;;;;121.25;14.13;;;;;;;-1.50;91.91;100879.62;1719726;83;20963;-42
2021/03/21 04:48:39;;;;;;;140.28;15.20;;;;;;;-1.40;91.81;100879.95;1719595;83;21568;-42
2021/03/21 04:51:16;;;;;;;190.03;17.20;;;;;;;-1.34;91.67;100873.86;1719613;83;21025;-42
2021/03/21 04:54:05;;;;;;;60.08;11.57;;;;;;;-1.23;91.54;100888.23;1719713;83;20951;-42
2021/03/21 04:56:37;;;;;;;91.00;11.73;;;;;;;-1.20;90.83;100880.30;1719264;83;21134;-42
2021/03/21 04:59:12;;;;;;;19.48;10.23;;;;;;;-1.14;90.47;100878.78;1719757;83;21070;-42
2021/03/21 05:01:52;;;;;;;;;;;;;;;-1.10;89.64;100878.11;1722268;83;21212;-43
2021/03/21 05:04:27;;;;;;;63.87;9.98;;;;;;;-1.08;89.30;100882.84;1719694;83;20169;-42
2021/03/21 05:07:06;;;;;;;14.55;9.33;;;;;;;-1.06;88.91;100882.06;1719921;83;21504;-43
2021/03/21 05:09:44;;;;;;;39.33;9.98;;;;;;;-1.04;88.52;100879.59;1719603;83;21086;-43
2021/03/21 05:12:23;;;;;;;18.95;9.05;;;;;;;-1.00;88.19;100886.51;1719730;83;20900;-42
2021/03/21 05:15:13;;;;;;;34.85;9.78;;;;;;;-0.96;88.00;100884.53;1719705;83;20950;-42
2021/03/21 05:17:49;;;;;;;44.95;11.20;;;;;;;-0.92;87.66;100890.18;1719741;83;20967;-42
2021/03/21 05:20:31;;;;;;;17.90;9.95;;;;;;;-0.90;87.23;100883.47;1719715;82;21022;-43
2021/03/21 05:23:07;;;;;;;157.15;15.48;;;;;;;-0.89;86.77;100882.66;1719675;83;20903;-42
2021/03/21 05:25:49;;;;;;;43.13;10.28;;;;;;;-0.86;86.86;100888.27;1719422;83;21081;-42
2021/03/21 05:28:47;;;;;;;17.77;9.88;;;;;;;-0.83;86.79;100879.89;1719695;82;21213;-42
2021/03/21 05:31:14;;;;;;;18.32;9.95;;;;;;;-0.79;86.83;100882.58;1666277;85;21148;-42
2021/03/21 05:33:42;;;;;;;20.50;9.83;;;;;;;-0.71;86.69;100886.66;1683866;84;21438;-41
2021/03/21 05:36:26;;;;;;;17.15;10.63;;;;;;;-0.68;86.31;100885.50;1635486;84;20963;-41
2021/03/21 05:39:01;;;;;;;17.80;10.40;;;;;;;-0.66;86.39;100883.87;1709560;84;21059;-42
2021/03/21 05:42:00;;;;;;;16.87;9.35;;;;;;;-0.62;85.83;100891.20;1709586;84;21374;-42
2021/03/21 05:45:00;;;;;;;14.58;9.88;;;;;;;-0.56;85.93;100880.39;1709471;84;21623;-42
2021/03/21 05:47:51;;;;;;;42.88;10.20;;;;;;;-0.49;85.77;100882.31;1709502;84;20974;-42
2021/03/21 05:50:52;;;;;;;15.53;9.25;;;;;;;-0.43;84.53;100887.60;1709420;84;21213;-41
2021/03/21 05:54:00;;;;;;;18.90;10.65;;;;;;;-0.44;83.77;100879.12;1691309;84;20975;-42
2021/03/21 05:56:56;;;;;;;18.02;10.23;;;;;;;-0.44;83.50;100879.12;1709480;84;21207;-42
2021/03/21 05:59:33;;;;;;;15.83;9.58;;;;;;;-0.40;83.65;100880.06;1709530;84;21074;-43
2021/03/21 06:02:52;;;;;;;19.82;9.13;;;;;;;-0.34;83.45;100880.69;1709485;84;20912;-42
2021/03/21 06:06:05;;;;;;;21.97;10.53;;;;;;;-0.28;83.38;100878.34;1709477;84;20971;-42
2021/03/21 06:08:50;;;;;;;18.45;10.15;;;;;;;-0.27;82.64;100870.31;1709495;84;20919;-42
2021/03/21 06:11:48;;;;;;;21.80;9.78;;;;;;;-0.24;82.32;100880.19;1709387;84;21220;-41
2021/03/21 06:14:36;;;;;;;17.95;10.20;;;;;;;-0.20;82.13;100869.30;1685388;84;21039;-42
2021/03/21 06:17:42;;;;;;;16.93;9.70;;;;;;;-0.18;81.78;100881.66;1709446;84;21039;-43
2021/03/21 06:20:33;;;;;;;18.85;10.82;;;;;;;-0.11;81.11;100883.12;1709498;84;21074;-42
2021/03/21 06:23:32;;;;;;;18.60;9.43;;;;;;;-0.06;81.31;100881.19;1664223;84;20973;-44
2021/03/21 06:26:18;;;;;;;15.23;9.05;;;;;;;0.01;81.40;100886.47;1664627;86;21222;-42
2021/03/21 06:29:27;;;;;;;22.30;9.33;;;;;;;0.12;80.99;100888.93;1692576;84;21041;-42
2021/03/21 06:32:19;;;;;;;15.10;9.73;;;;;;;0.14;80.43;100889.45;1664513;86;21052;-42
2021/03/21 06:34:53;;;;;;;15.60;10.45;;;;;;;0.21;80.74;100893.05;1692441;84;20986;-42
2021/03/21 06:37:48;;;;;;;16.00;9.33;;;;;;;0.31;80.61;100883.14;1675648;84;21010;-42
2021/03/21 06:40:25;;;;;;;19.15;10.63;;;;;;;0.36;79.93;100889.23;1667546;86;21505;-43
2021/03/21 06:43:19;;;;;;;17.70;10.13;;;;;;;0.32;77.81;100888.69;1667588;86;21050;-44
2021/03/21 06:46:19;;;;;;;20.23;11.78;;;;;;;0.26;77.48;100881.75;1667563;86;21046;-42
2021/03/21 06:49:05;;;;;;;19.20;11.90;;;;;;;0.26;78.15;100880.05;1606480;89;21013;-43
2021/03/21 06:52:02;;;;;;;17.35;10.65;;;;;;;0.28;77.69;100869.50;1642904;87;24167;-43
2021/03/21 06:54:40;;;;;;;16.50;9.80;;;;;;;0.35;76.66;100869.67;1667776;86;21463;-43
2021/03/21 06:57:29;;;;;;;19.07;10.28;;;;;;;0.40;76.37;100876.64;1667256;86;21591;-43
2021/03/21 07:00:22;;;;;;;18.62;10.48;;;;;;;0.46;75.28;100871.27;1667639;86;21102;-42
2021/03/21 07:03:41;;;;;;;23.83;10.05;;;;;;;0.56;76.29;100855.45;1667635;85;21131;-43
2021/03/21 07:06:54;;;;;;;15.88;9.98;;;;;;;0.66;76.50;100857.86;1667601;86;20924;-42
2021/03/21 07:10:10;;;;;;;19.55;11.15;;;;;;;0.73;74.55;100856.33;1667585;86;21383;-43
2021/03/21 07:13:31;;;;;;;18.92;10.95;;;;;;;0.89;74.52;100853.40;1667603;86;21074;-43
2021/03/21 07:16:17;;;;;;;29.95;10.98;;;;;;;0.99;74.95;100849.42;1667537;84;21066;-45
2021/03/21 07:19:13;;;;;;;26.97;10.95;;;;;;;1.13;74.64;100849.36;1667741;86;28084;-43
2021/03/21 07:22:23;;;;;;;19.90;11.18;;;;;;;1.12;73.43;100850.19;1667618;85;21719;-44
2021/03/21 07:24:59;;;;;;;27.32;11.33;;;;;;;1.06;73.52;100846.20;1667632;86;21226;-43
2021/03/21 07:27:52;;;;;;;54.33;12.73;;;;;;;1.18;73.56;100844.82;1666365;84;21070;-43
2021/03/21 07:30:55;;;;;;;21.27;10.30;;;;;;;1.23;72.35;100839.42;1667578;85;20951;-44
2021/03/21 07:33:29;;;;;;;21.45;10.95;;;;;;;1.23;72.76;100838.15;1606473;89;21119;-44
2021/03/21 07:36:17;;;;;;;15.90;9.83;;;;;;;1.46;72.51;100834.05;1847663;76;22689;-43
2021/03/21 07:39:13;;;;;;;13.45;7.87;;;;;;;1.40;70.39;100848.78;1817792;79;20922;-45
2021/03/21 07:42:26;;;;;;;16.80;9.63;;;;;;;1.27;69.51;100837.40;1817718;78;21286;-44
2021/03/21 07:45:23;;;;;;;14.53;8.93;;;;;;;1.27;70.92;100829.75;1817801;79;21010;-43
2021/03/21 07:48:11;;;;;;;354.02;23.05;;;;;;;1.36;71.59;100831.67;1817899;79;20923;-45
2021/03/21 07:51:19;;;;;;;59.93;8.08;;;;;;;1.46;71.73;100823.84;1811700;79;20958;-43
2021/03/21 07:53:56;;;;;;;;;;;;;;;1.50;67.51;100829.03;1820318;79;21017;-44
2021/03/21 07:56:45;;;;;;;137.60;13.30;;;;;;;1.38;68.71;100823.22;1817759;78;21353;-43
2021/03/21 07:59:19;;;;;;;328.35;19.25;;;;;;;1.51;69.39;100819.28;1817728;77;20895;-44
2021/03/21 08:01:47;;;;;;;175.55;14.15;;;;;;;1.67;68.52;100824.77;1817737;79;21005;-43
2021/03/21 08:04:24;;;;;;;39.92;8.58;;;;;;;1.79;67.73;100809.76;1817788;79;20935;-43
2021/03/21 08:07:02;;;;;;;78.62;9.95;;;;;;;1.87;65.80;100806.08;1817791;77;20939;-43
2021/03/21 08:09:37;;;;;;;244.00;19.30;;;;;;;1.98;65.14;100807.20;1817882;79;22175;-43
2021/03/21 08:12:22;;;;;;;263.55;17.90;;;;;;;2.08;65.85;100808.28;1817842;79;20912;-45
2021/03/21 08:15:05;;;;;;;20.13;8.60;;;;;;;2.24;65.75;100795.81;1818046;78;20911;-44
2021/03/21 08:17:42;;;;;;;12.60;8.93;;;;;;;2.28;64.44;100797.20;1817860;79;21468;-44
2021/03/21 08:20:27;;;;;;;16.85;8.40;;;;;;;2.37;64.97;100803.33;1817785;79;20962;-45
2021/03/21 08:23:21;;;;;;;34.05;8.48;;;;;;;2.40;64.14;100795.32;1806531;79;21332;-44
2021/03/21 08:25:50;;;;;;;14.23;9.48;;;;;;;2.47;63.60;100798.88;1817743;79;21010;-44
2021/03/21 08:28:21;;;;;;;71.17;11.43;;;;;;;2.63;63.44;100786.37;1798970;77;21156;-41
2021/03/21 08:30:58;;;;;;;47.40;8.35;;;;;;;2.75;64.32;100790.87;1785536;80;20997;-43
2021/03/21 08:33:38;;;;;;;34.75;8.98;;;;;;;3.03;63.46;100788.41;1785713;80;20986;-44
2021/03/21 08:36:20;;;;;;;380.87;19.32;;;;;;;3.25;63.89;100789.64;1798466;79;21542;-44
2021/03/21 08:38:59;;;;;;;114.50;10.32;;;;;;;3.48;60.58;100796.00;1800042;79;21016;-43
2021/03/21 08:41:28;;;;;;;157.35;12.55;;;;;;;3.21;60.93;100797.27;1796579;79;21005;-42
2021/03/21 08:43:59;;;;;;;448.93;21.65;;;;;;;3.08;60.06;100791.91;1800170;79;21021;-42
2021/03/21 08:46:27;;;;;;;219.93;13.65;;;;;;;3.10;59.78;100779.16;1799788;79;21037;-43
2021/03/21 08:49:20;;;;;;;123.92;10.78;;;;;;;3.02;59.14;100787.54;1799601;78;21601;-44
2021/03/21 08:51:48;;;;;;;67.10;7.03;;;;;;;3.06;59.32;100780.80;1799493;79;21014;-43
2021/03/21 08:54:28;;;;;;;77.62;7.55;;;;;;;3.10;56.38;100767.22;1799564;79;20906;-43
2021/03/21 08:57:34;;;;;;;133.27;11.15;;;;;;;2.97;58.80;100778.93;1799594;79;20945;-44
2021/03/21 09:00:18;;;;;;;300.43;15.78;;;;;;;3.12;59.32;100769.81;1795076;78;21073;-44
2021/03/21 09:02:46;;;;;;;39.18;6.97;;;;;;;3.23;57.13;100770.84;1798898;78;21247;-42
2021/03/21 09:05:19;;;;;;;162.70;9.98;;;;;;;3.25;56.86;100764.05;1798554;78;21629;-44
2021/03/21 09:07:59;;;;;;;338.00;17.73;;;;;;;3.28;56.02;100765.81;1799143;79;21069;-47
2021/03/21 09:10:32;;;;;;;714.60;31.62;;;;;;;3.26;57.23;100766.21;1798604;78;21041;-43
2021/03/21 09:13:13;;;;;;;650.65;42.53;;;;;;;3.30;55.85;100762.86;1794376;78;21602;-43
2021/03/21 09:16:01;;;;;;;46.08;7.17;;;;;;;3.41;56.31;100773.27;1799435;79;21381;-44
2021/03/21 09:18:41;;;;;;;134.50;13.10;;;;;;;3.35;55.74;100753.98;1797013;78;21013;-44
2021/03/21 09:21:26;;;;;;;419.50;18.37;;;;;;;3.43;55.74;100752.00;1793870;79;20963;-42
2021/03/21 09:24:09;;;;;;;337.38;16.93;;;;;;;3.58;55.28;100751.77;1795699;80;26534;-41
2021/03/21 09:26:43;;;;;;;222.70;12.60;;;;;;;3.61;53.12;100750.97;1774112;79;21610;-44
2021/03/21 09:29:22;;;;;;;48.98;6.33;;;;;;;3.61;53.94;100756.94;1797944;78;21403;-44
2021/03/21 09:31:54;;;;;;;31.07;6.42;;;;;;;3.66;53.95;100748.90;1775983;79;21563;-44
2021/03/21 09:35:01;;;;;;;32.83;5.58;;;;;;;3.84;55.04;100744.89;1791898;79;20891;-43
2021/03/21 09:37:33;;;;;;;22.90;5.75;;;;;;;4.07;54.18;100744.34;1789341;80;21139;-42
2021/03/21 09:40:27;;;;;;;24.82;6.55;;;;;;;3.99;51.97;100733.98;1789452;79;21005;-43
2021/03/21 09:42:59;;;;;;;31.02;6.87;;;;;;;3.88;52.31;100738.56;1797001;79;21355;-45
2021/03/21 09:45:27;;;;;;;58.52;7.35;;;;;;;3.72;50.93;100734.93;1799332;79;21183;-43
2021/03/21 09:48:00;;;;;;;61.33;6.55;;;;;;;3.72;51.27;100736.20;1799244;79;20946;-43
2021/03/21 09:50:43;;;;;;;8.08;5.00;;;;;;;3.67;51.44;100735.29;1799348;79;20957;-42
2021/03/21 09:53:39;;;;;;;12.68;5.00;;;;;;;3.66;51.63;100730.97;1767745;81;21069;-44
2021/03/21 09:56:18;;;;;;;6.80;5.03;;;;;;;3.77;50.06;100727.73;1767598;81;21408;-43
2021/03/21 09:58:58;;;;;;;9.08;4.72;;;;;;;3.95;50.48;100725.83;1712647;81;21163;-43
2021/03/21 10:01:49;;;;;;;17.48;4.50;;;;;;;3.91;50.22;100727.91;1726678;81;20938;-44
2021/03/21 10:04:38;;;;;;;7.08;4.25;;;;;;;3.97;50.01;100727.98;1746945;82;20918;-43
2021/03/21 10:07:21;;;;;;;7.50;4.50;;;;;;;3.94;47.73;100726.27;1749674;81;20986;-42
2021/03/21 10:09:49;;;;;;;9.58;5.20;;;;;;;3.93;48.92;100716.86;1749580;82;21268;-43
2021/03/21 10:12:17;;;;;;;46.40;5.65;;;;;;;3.85;50.96;100720.59;1749600;81;21584;-43
2021/03/21 10:15:05;;;;;;;3.87;3.27;;;;;;;3.86;49.08;100715.03;1749533;82;21057;-44
2021/03/21 10:17:37;;;;;;;109.48;6.92;;;;;;;3.80;44.71;100717.52;1749501;82;20903;-43
2021/03/21 10:20:06;;;;;;;3.90;3.60;;;;;;;3.80;46.78;100709.44;1749739;82;20923;-43
2021/03/21 10:22:39;;;;;;;5.85;4.47;;;;;;;3.71;44.73;100705.04;1749540;82;21381;-43
2021/03/21 10:25:16;;;;;;;10.23;4.53;;;;;;;3.64;45.51;100701.93;1749601;81;21571;-43
2021/03/21 10:27:46;;;;;;;70.78;6.85;;;;;;;3.69;46.23;100692.64;1731585;82;20969;-43
2021/03/21 10:30:25;;;;;;;5.87;4.40;;;;;;;3.81;45.41;100692.34;1773732;80;21065;-41
2021/03/21 10:33:04;;;;;;;7.62;3.80;;;;;;;3.71;44.23;100684.55;1782542;80;21013;-44
2021/03/21 10:35:38;;;;;;;6.78;3.83;;;;;;;3.62;42.45;100676.73;1779001;80;21536;-44
2021/03/21 10:38:10;;;;;;;4.92;3.62;;;;;;;3.68;45.41;100667.87;1775681;79;20985;-43
2021/03/21 10:40:45;;;;;;;13.85;4.22;;;;;;;3.95;44.28;100668.19;1763403;80;21144;-43
2021/03/21 10:43:22;;;;;;;6.08;4.10;;;;;;;4.05;44.14;100661.48;1776958;80;20991;-43
2021/03/21 10:45:54;;;;;;;5.90;4.05;;;;;;;4.09;43.95;100656.83;1776616;80;21062;-43
2021/03/21 10:48:30;;;;;;;12.68;4.65;;;;;;;4.21;45.19;100667.23;1759587;81;21603;-44
2021/03/21 10:51:09;;;;;;;7.85;4.12;;;;;;;4.34;44.57;100657.09;1729452;83;21553;-43
2021/03/21 10:53:39;;;;;;;110.20;8.40;;;;;;;4.33;44.10;100659.23;1759624;81;21010;-43
2021/03/21 10:56:21;;;;;;;9.33;5.62;;;;;;;4.34;45.42;100623.78;1729359;82;21198;-43
2021/03/21 10:59:09;;;;;;;6.72;5.35;;;;;;;4.23;46.90;100639.91;1759805;81;20966;-43
2021/03/21 11:01:43;;;;;;;63.63;6.75;;;;;;;4.29;46.56;100645.50;1759698;81;21378;-44
2021/03/21 11:04:31;;;;;;;14.63;5.92;;;;;;;4.16;46.85;100647.95;1729546;83;21027;-43
2021/03/21 11:07:18;;;;;;;9.23;5.58;;;;;;;3.86;48.43;100651.00;1759673;81;21055;-43
2021/03/21 11:09:59;;;;;;;12.88;6.00;;;;;;;3.65;49.50;100643.92;1759751;81;21057;-44
2021/03/21 11:12:37;;;;;;;14.98;5.92;;;;;;;3.84;48.29;100639.48;1729588;81;20956;-43
2021/03/21 11:15:31;;;;;;;102.27;8.88;;;;;;;3.90;48.99;100639.11;1759769;81;21398;-43
2021/03/21 11:18:09;;;;;;;405.57;20.60;;;;;;;3.71;48.53;100641.03;1729539;81;21087;-44
2021/03/21 11:20:38;;;;;;;1251.98;59.93;;;;;;;3.50;48.69;100633.91;1750771;81;21018;-45
2021/03/21 11:23:08;;;;;;;566.12;29.00;;;;;;;3.45;49.45;100633.86;1753909;80;20930;-43
2021/03/21 11:25:41;;;;;;;769.97;39.42;;;;;;;3.47;50.03;100625.34;1759804;80;21055;-44
2021/03/21 11:28:36;;;;;;;360.88;19.37;;;;;;;3.47;50.86;100627.47;1729558;81;21344;-46
2021/03/21 11:31:08;;;;;;;14.20;6.55;;;;;;;3.55;50.54;100622.45;1831659;76;27926;-44
2021/03/21 11:33:42;;;;;;;99.20;8.80;;;;;;;3.64;51.35;100623.00;1817980;79;21192;-45
2021/03/21 11:36:24;;;;;;;314.57;17.55;;;;;;;3.86;50.94;100609.63;1818150;79;22265;-45
2021/03/21 11:38:53;;;;;;;113.85;10.05;;;;;;;3.84;51.23;100612.99;1817765;78;21058;-45
2021/03/21 11:41:37;;;;;;;7.15;5.42;;;;;;;3.80;52.67;100612.52;1817760;79;20971;-44
2021/03/21 11:44:30;;;;;;;50.33;7.22;;;;;;;3.97;50.03;100600.78;1817884;77;21029;-44
2021/03/21 11:47:30;;;;;;;26.82;6.22;;;;;;;3.94;50.45;100598.19;1817854;79;21001;-44
2021/03/21 11:50:00;;;;;;;97.27;8.68;;;;;;;3.94;49.98;100592.19;1813727;79;21369;-43
2021/03/21 11:52:27;;;;;;;50.20;6.97;;;;;;;4.05;49.63;100583.34;1817722;77;20934;-43
2021/03/21 11:54:56;;;;;;;74.92;9.50;;;;;;;4.16;49.96;100576.20;1786512;77;21053;-44
2021/03/21 11:58:05;;;;;;;94.85;10.63;;;;;;;3.99;51.05;100586.69;1817737;78;21025;-42
2021/03/21 12:00:36;;;;;;;7.60;5.62;;;;;;;3.99;51.05;100586.69;1817771;79;21670;-42
2021/03/21 12:03:16;;;;;;;7.10;5.47;;;;;;;4.20;49.34;100571.98;1817863;79;21479;-43
2021/03/21 12:05:59;;;;;;;17.42;6.70;;;;;;;4.50;48.53;100573.09;1817122;79;21461;-45
2021/03/21 12:08:39;;;;;;;12.93;6.55;;;;;;;4.53;48.32;100567.12;1817793;79;20946;-43
2021/03/21 12:11:27;;;;;;;26.97;6.30;;;;;;;4.63;47.80;100561.64;1817701;78;21030;-42
2021/03/21 12:13:57;;;;;;;12.25;5.75;;;;;;;4.76;47.81;100555.77;1817791;78;21540;-43
2021/03/21 12:16:43;;;;;;;10.08;5.45;;;;;;;4.67;47.26;100561.69;1816459;79;22337;-44
2021/03/21 12:19:34;;;;;;;9.00;5.80;;;;;;;4.71;47.58;100560.02;1817845;79;20955;-44
2021/03/21 12:22:06;;;;;;;7.75;5.15;;;;;;;4.67;47.99;100555.69;1817703;79;21069;-43